sensor_id;sensor_type;location;lat;lon;timestamp;temperature;humidity
21176;DHT22;10746;50.178;8.186;2023-01-30T00:00:04;-0.80;99.90
21176;DHT22;10746;50.178;8.186;2023-01-30T00:02:31;-0.80;99.90
21176;DHT22;10746;50.178;8.186;2023-01-30T00:04:57;-0.80;99.90
21176;DHT22;10746;50.178;8.186;2023-01-30T00:07:24;-0.80;99.90
21176;DHT22;10746;50.178;8.186;2023-01-30T00:09:51;-0.80;99.90
21176;DHT22;10746;50.178;8.186;2023-01-30T00:12:18;-0.80;99.90
21176;DHT22;10746;50.178;8.186;2023-01-30T00:14:46;-0.80;99.90
21176;DHT22;10746;50.178;8.186;2023-01-30T00:17:13;-0.80;99.90
21176;DHT22;10746;50.178;8.186;2023-01-30T00:19:39;-0.80;99.90
21176;DHT22;10746;50.178;8.186;2023-01-30T00:22:06;-0.80;99.90
21176;DHT22;10746;50.178;8.186;2023-01-30T00:24:33;-0.80;99.90
21176;DHT22;10746;50.178;8.186;2023-01-30T00:27:00;-0.90;99.90
21176;DHT22;10746;50.178;8.186;2023-01-30T00:29:27;-0.80;99.90
21176;DHT22;10746;50.178;8.186;2023-01-30T00:31:55;-0.90;99.90
21176;DHT22;10746;50.178;8.186;2023-01-30T00:34:22;-0.80;99.90
21176;DHT22;10746;50.178;8.186;2023-01-30T00:36:48;-0.80;99.90
21176;DHT22;10746;50.178;8.186;2023-01-30T00:39:15;-0.80;99.90
21176;DHT22;10746;50.178;8.186;2023-01-30T00:41:43;-0.80;99.90
21176;DHT22;10746;50.178;8.186;2023-01-30T00:44:27;-0.70;99.90
21176;DHT22;10746;50.178;8.186;2023-01-30T00:47:13;-0.70;99.90
21176;DHT22;10746;50.178;8.186;2023-01-30T00:49:39;-0.60;99.90
21176;DHT22;10746;50.178;8.186;2023-01-30T00:52:06;-0.60;99.90
21176;DHT22;10746;50.178;8.186;2023-01-30T00:54:33;-0.60;99.90
21176;DHT22;10746;50.178;8.186;2023-01-30T00:57:00;-0.50;99.90
21176;DHT22;10746;50.178;8.186;2023-01-30T00:59:27;-0.50;99.90
21176;DHT22;10746;50.178;8.186;2023-01-30T01:01:54;-0.50;99.90
21176;DHT22;10746;50.178;8.186;2023-01-30T01:04:22;-0.40;99.90
21176;DHT22;10746;50.178;8.186;2023-01-30T01:06:49;-0.40;99.90
21176;DHT22;10746;50.178;8.186;2023-01-30T01:09:16;-0.40;99.90
21176;DHT22;10746;50.178;8.186;2023-01-30T01:11:43;-0.40;99.90
21176;DHT22;10746;50.178;8.186;2023-01-30T01:14:09;-0.40;99.90
21176;DHT22;10746;50.178;8.186;2023-01-30T01:16:36;-0.40;99.90
21176;DHT22;10746;50.178;8.186;2023-01-30T01:19:03;-0.30;99.90
21176;DHT22;10746;50.178;8.186;2023-01-30T01:21:32;-0.30;99.90
21176;DHT22;10746;50.178;8.186;2023-01-30T01:23:59;-0.30;99.90
21176;DHT22;10746;50.178;8.186;2023-01-30T01:26:26;-0.30;99.90
21176;DHT22;10746;50.178;8.186;2023-01-30T01:28:54;-0.30;99.90
21176;DHT22;10746;50.178;8.186;2023-01-30T01:31:20;-0.30;99.90
21176;DHT22;10746;50.178;8.186;2023-01-30T01:33:48;-0.30;99.90
21176;DHT22;10746;50.178;8.186;2023-01-30T01:36:15;-0.30;99.90
21176;DHT22;10746;50.178;8.186;2023-01-30T01:38:44;-0.30;99.90
21176;DHT22;10746;50.178;8.186;2023-01-30T01:41:12;-0.20;99.90
21176;DHT22;10746;50.178;8.186;2023-01-30T01:43:58;-0.20;99.90
21176;DHT22;10746;50.178;8.186;2023-01-30T01:46:28;-0.30;99.90
21176;DHT22;10746;50.178;8.186;2023-01-30T01:48:57;-0.30;99.90
21176;DHT22;10746;50.178;8.186;2023-01-30T01:51:27;-0.20;99.90
21176;DHT22;10746;50.178;8.186;2023-01-30T01:53:58;-0.10;99.90
21176;DHT22;10746;50.178;8.186;2023-01-30T01:56:30;-0.10;99.90
21176;DHT22;10746;50.178;8.186;2023-01-30T01:59:01;-0.10;99.90
21176;DHT22;10746;50.178;8.186;2023-01-30T02:01:29;-0.10;99.90
21176;DHT22;10746;50.178;8.186;2023-01-30T02:03:59;0.00;99.90
21176;DHT22;10746;50.178;8.186;2023-01-30T02:06:28;0.00;99.90
21176;DHT22;10746;50.178;8.186;2023-01-30T02:09:01;0.00;99.90
21176;DHT22;10746;50.178;8.186;2023-01-30T02:11:30;0.00;99.90
21176;DHT22;10746;50.178;8.186;2023-01-30T02:13:59;0.00;99.90
21176;DHT22;10746;50.178;8.186;2023-01-30T02:16:26;0.00;99.90
21176;DHT22;10746;50.178;8.186;2023-01-30T02:18:53;0.10;99.90
21176;DHT22;10746;50.178;8.186;2023-01-30T02:24:54;0.10;99.90
21176;DHT22;10746;50.178;8.186;2023-01-30T02:27:47;0.10;99.90
21176;DHT22;10746;50.178;8.186;2023-01-30T02:33:25;0.10;99.90
21176;DHT22;10746;50.178;8.186;2023-01-30T02:36:03;0.10;99.90
21176;DHT22;10746;50.178;8.186;2023-01-30T02:38:38;0.20;99.90
21176;DHT22;10746;50.178;8.186;2023-01-30T02:41:14;0.20;99.90
21176;DHT22;10746;50.178;8.186;2023-01-30T02:43:50;0.10;99.90
21176;DHT22;10746;50.178;8.186;2023-01-30T02:46:25;0.20;99.90
21176;DHT22;10746;50.178;8.186;2023-01-30T02:49:01;0.20;99.90
21176;DHT22;10746;50.178;8.186;2023-01-30T02:51:34;0.20;99.90
21176;DHT22;10746;50.178;8.186;2023-01-30T02:54:04;0.10;99.90
21176;DHT22;10746;50.178;8.186;2023-01-30T02:56:45;0.10;99.90
21176;DHT22;10746;50.178;8.186;2023-01-30T02:59:13;0.20;99.90
21176;DHT22;10746;50.178;8.186;2023-01-30T03:04:49;0.20;99.90
21176;DHT22;10746;50.178;8.186;2023-01-30T03:07:29;0.20;99.90
21176;DHT22;10746;50.178;8.186;2023-01-30T03:10:03;0.20;99.90
21176;DHT22;10746;50.178;8.186;2023-01-30T03:12:40;0.20;99.90
21176;DHT22;10746;50.178;8.186;2023-01-30T03:15:15;0.20;99.90
21176;DHT22;10746;50.178;8.186;2023-01-30T03:17:44;0.20;99.90
21176;DHT22;10746;50.178;8.186;2023-01-30T03:20:14;0.20;99.90
21176;DHT22;10746;50.178;8.186;2023-01-30T03:22:41;0.20;99.90
21176;DHT22;10746;50.178;8.186;2023-01-30T03:25:10;0.20;99.90
21176;DHT22;10746;50.178;8.186;2023-01-30T03:27:39;0.20;99.90
21176;DHT22;10746;50.178;8.186;2023-01-30T03:30:07;0.20;99.90
21176;DHT22;10746;50.178;8.186;2023-01-30T03:32:34;0.20;99.90
21176;DHT22;10746;50.178;8.186;2023-01-30T03:35:01;0.20;99.90
21176;DHT22;10746;50.178;8.186;2023-01-30T03:37:29;0.20;99.90
21176;DHT22;10746;50.178;8.186;2023-01-30T03:39:57;0.20;99.90
21176;DHT22;10746;50.178;8.186;2023-01-30T03:42:24;0.30;99.90
21176;DHT22;10746;50.178;8.186;2023-01-30T03:44:51;0.30;99.90
21176;DHT22;10746;50.178;8.186;2023-01-30T03:47:17;0.30;99.90
21176;DHT22;10746;50.178;8.186;2023-01-30T03:49:44;0.30;99.90
21176;DHT22;10746;50.178;8.186;2023-01-30T03:52:11;0.30;99.90
21176;DHT22;10746;50.178;8.186;2023-01-30T03:54:39;0.40;99.90
21176;DHT22;10746;50.178;8.186;2023-01-30T03:57:06;0.40;99.90
21176;DHT22;10746;50.178;8.186;2023-01-30T03:59:33;0.40;99.90
21176;DHT22;10746;50.178;8.186;2023-01-30T04:01:59;0.40;99.90
21176;DHT22;10746;50.178;8.186;2023-01-30T04:04:26;0.40;99.90
21176;DHT22;10746;50.178;8.186;2023-01-30T04:06:53;0.40;99.90
21176;DHT22;10746;50.178;8.186;2023-01-30T04:09:20;0.50;99.90
21176;DHT22;10746;50.178;8.186;2023-01-30T04:11:48;0.50;99.90
21176;DHT22;10746;50.178;8.186;2023-01-30T04:14:15;0.50;99.90
21176;DHT22;10746;50.178;8.186;2023-01-30T04:16:42;0.50;99.90
21176;DHT22;10746;50.178;8.186;2023-01-30T04:19:08;0.50;99.90
21176;DHT22;10746;50.178;8.186;2023-01-30T04:21:35;0.50;99.90
21176;DHT22;10746;50.178;8.186;2023-01-30T04:24:02;0.50;99.90
21176;DHT22;10746;50.178;8.186;2023-01-30T04:26:29;0.60;99.90
21176;DHT22;10746;50.178;8.186;2023-01-30T04:28:57;0.60;99.90
21176;DHT22;10746;50.178;8.186;2023-01-30T04:31:24;0.70;99.90
21176;DHT22;10746;50.178;8.186;2023-01-30T04:33:50;0.60;99.90
21176;DHT22;10746;50.178;8.186;2023-01-30T04:36:17;0.60;99.90
21176;DHT22;10746;50.178;8.186;2023-01-30T04:38:44;0.60;99.90
21176;DHT22;10746;50.178;8.186;2023-01-30T04:41:11;0.70;99.90
21176;DHT22;10746;50.178;8.186;2023-01-30T04:43:37;0.60;99.90
21176;DHT22;10746;50.178;8.186;2023-01-30T04:46:05;0.70;99.90
21176;DHT22;10746;50.178;8.186;2023-01-30T04:48:32;0.70;99.90
21176;DHT22;10746;50.178;8.186;2023-01-30T04:50:59;0.70;99.90
21176;DHT22;10746;50.178;8.186;2023-01-30T04:53:26;0.70;99.90
21176;DHT22;10746;50.178;8.186;2023-01-30T04:55:53;0.70;99.90
21176;DHT22;10746;50.178;8.186;2023-01-30T04:58:20;0.80;99.90
21176;DHT22;10746;50.178;8.186;2023-01-30T05:00:47;0.80;99.90
21176;DHT22;10746;50.178;8.186;2023-01-30T05:03:16;0.80;99.90
21176;DHT22;10746;50.178;8.186;2023-01-30T05:05:45;0.80;99.90
21176;DHT22;10746;50.178;8.186;2023-01-30T05:08:12;0.80;99.90
21176;DHT22;10746;50.178;8.186;2023-01-30T05:10:39;0.80;99.90
21176;DHT22;10746;50.178;8.186;2023-01-30T05:13:06;0.90;99.90
21176;DHT22;10746;50.178;8.186;2023-01-30T05:15:33;0.90;99.90
21176;DHT22;10746;50.178;8.186;2023-01-30T05:18:00;0.90;99.90
21176;DHT22;10746;50.178;8.186;2023-01-30T05:20:28;0.90;99.90
21176;DHT22;10746;50.178;8.186;2023-01-30T05:22:55;0.90;99.90
21176;DHT22;10746;50.178;8.186;2023-01-30T05:25:22;1.00;99.90
21176;DHT22;10746;50.178;8.186;2023-01-30T05:27:48;0.90;99.90
21176;DHT22;10746;50.178;8.186;2023-01-30T05:30:15;0.90;99.90
21176;DHT22;10746;50.178;8.186;2023-01-30T05:32:42;0.90;99.90
21176;DHT22;10746;50.178;8.186;2023-01-30T05:35:09;0.90;99.90
21176;DHT22;10746;50.178;8.186;2023-01-30T05:37:38;0.90;99.90
21176;DHT22;10746;50.178;8.186;2023-01-30T05:40:06;1.00;99.90
21176;DHT22;10746;50.178;8.186;2023-01-30T05:42:33;1.00;99.90
21176;DHT22;10746;50.178;8.186;2023-01-30T05:45:00;0.90;99.90
21176;DHT22;10746;50.178;8.186;2023-01-30T05:47:27;0.80;99.90
21176;DHT22;10746;50.178;8.186;2023-01-30T05:49:54;0.80;99.90
21176;DHT22;10746;50.178;8.186;2023-01-30T05:52:20;0.80;99.90
21176;DHT22;10746;50.178;8.186;2023-01-30T05:54:49;0.90;99.90
21176;DHT22;10746;50.178;8.186;2023-01-30T05:57:15;0.90;99.90
21176;DHT22;10746;50.178;8.186;2023-01-30T05:59:42;0.80;99.90
21176;DHT22;10746;50.178;8.186;2023-01-30T06:02:09;0.80;99.90
21176;DHT22;10746;50.178;8.186;2023-01-30T06:04:36;0.80;99.90
21176;DHT22;10746;50.178;8.186;2023-01-30T06:07:02;0.80;99.90
21176;DHT22;10746;50.178;8.186;2023-01-30T06:09:29;0.80;99.90
21176;DHT22;10746;50.178;8.186;2023-01-30T06:11:57;0.90;99.90
21176;DHT22;10746;50.178;8.186;2023-01-30T06:14:24;0.90;99.90
21176;DHT22;10746;50.178;8.186;2023-01-30T06:16:51;1.00;99.90
21176;DHT22;10746;50.178;8.186;2023-01-30T06:19:17;0.90;99.90
21176;DHT22;10746;50.178;8.186;2023-01-30T06:21:44;1.00;99.90
21176;DHT22;10746;50.178;8.186;2023-01-30T06:24:11;1.00;99.90
21176;DHT22;10746;50.178;8.186;2023-01-30T06:26:38;1.00;99.90
21176;DHT22;10746;50.178;8.186;2023-01-30T06:29:06;1.10;99.90
21176;DHT22;10746;50.178;8.186;2023-01-30T06:31:33;1.00;99.90
21176;DHT22;10746;50.178;8.186;2023-01-30T06:34:00;1.10;99.90
21176;DHT22;10746;50.178;8.186;2023-01-30T06:36:26;1.10;99.90
21176;DHT22;10746;50.178;8.186;2023-01-30T06:38:53;1.20;99.90
21176;DHT22;10746;50.178;8.186;2023-01-30T06:41:20;1.20;99.90
21176;DHT22;10746;50.178;8.186;2023-01-30T06:43:47;1.20;99.90
21176;DHT22;10746;50.178;8.186;2023-01-30T06:46:15;1.20;99.90
21176;DHT22;10746;50.178;8.186;2023-01-30T06:48:41;1.20;99.90
21176;DHT22;10746;50.178;8.186;2023-01-30T06:51:08;1.20;99.90
21176;DHT22;10746;50.178;8.186;2023-01-30T06:53:36;1.20;99.90
21176;DHT22;10746;50.178;8.186;2023-01-30T06:56:03;1.30;99.90
21176;DHT22;10746;50.178;8.186;2023-01-30T06:58:30;1.30;99.90
21176;DHT22;10746;50.178;8.186;2023-01-30T07:00:56;1.30;99.90
21176;DHT22;10746;50.178;8.186;2023-01-30T07:03:24;1.30;99.90
21176;DHT22;10746;50.178;8.186;2023-01-30T07:05:51;1.30;99.90
21176;DHT22;10746;50.178;8.186;2023-01-30T07:08:18;1.30;99.90
21176;DHT22;10746;50.178;8.186;2023-01-30T07:10:45;1.30;99.90
21176;DHT22;10746;50.178;8.186;2023-01-30T07:13:12;1.40;99.90
21176;DHT22;10746;50.178;8.186;2023-01-30T07:15:39;1.40;99.90
21176;DHT22;10746;50.178;8.186;2023-01-30T07:18:06;1.40;99.90
21176;DHT22;10746;50.178;8.186;2023-01-30T07:20:34;1.50;99.90
21176;DHT22;10746;50.178;8.186;2023-01-30T07:23:01;1.40;99.90
21176;DHT22;10746;50.178;8.186;2023-01-30T07:25:28;1.40;99.90
21176;DHT22;10746;50.178;8.186;2023-01-30T07:27:57;1.40;99.90
21176;DHT22;10746;50.178;8.186;2023-01-30T07:30:24;1.40;99.90
21176;DHT22;10746;50.178;8.186;2023-01-30T07:32:51;1.40;99.90
21176;DHT22;10746;50.178;8.186;2023-01-30T07:35:19;1.40;99.90
21176;DHT22;10746;50.178;8.186;2023-01-30T07:37:48;1.50;99.90
21176;DHT22;10746;50.178;8.186;2023-01-30T07:40:16;1.50;99.90
21176;DHT22;10746;50.178;8.186;2023-01-30T07:42:43;1.50;99.90
21176;DHT22;10746;50.178;8.186;2023-01-30T07:45:20;1.40;99.90
21176;DHT22;10746;50.178;8.186;2023-01-30T07:47:47;1.50;99.90
21176;DHT22;10746;50.178;8.186;2023-01-30T07:50:14;1.50;99.90
21176;DHT22;10746;50.178;8.186;2023-01-30T07:52:41;1.50;99.90
21176;DHT22;10746;50.178;8.186;2023-01-30T07:55:09;1.50;99.90
21176;DHT22;10746;50.178;8.186;2023-01-30T07:57:35;1.50;99.90
21176;DHT22;10746;50.178;8.186;2023-01-30T08:00:03;1.50;99.90
21176;DHT22;10746;50.178;8.186;2023-01-30T08:02:30;1.50;99.90
21176;DHT22;10746;50.178;8.186;2023-01-30T08:04:57;1.50;99.90
21176;DHT22;10746;50.178;8.186;2023-01-30T08:07:24;1.50;99.90
21176;DHT22;10746;50.178;8.186;2023-01-30T08:09:50;1.50;99.90
21176;DHT22;10746;50.178;8.186;2023-01-30T08:12:18;1.50;99.90
21176;DHT22;10746;50.178;8.186;2023-01-30T08:14:45;1.50;99.90
21176;DHT22;10746;50.178;8.186;2023-01-30T08:17:12;1.50;99.90
21176;DHT22;10746;50.178;8.186;2023-01-30T08:19:39;1.50;99.90
21176;DHT22;10746;50.178;8.186;2023-01-30T08:22:05;1.60;99.90
21176;DHT22;10746;50.178;8.186;2023-01-30T08:24:32;1.50;99.90
21176;DHT22;10746;50.178;8.186;2023-01-30T08:26:59;1.60;99.90
21176;DHT22;10746;50.178;8.186;2023-01-30T08:29:27;1.50;99.90
21176;DHT22;10746;50.178;8.186;2023-01-30T08:31:56;1.60;99.90
21176;DHT22;10746;50.178;8.186;2023-01-30T08:34:22;1.60;99.90
21176;DHT22;10746;50.178;8.186;2023-01-30T08:36:49;1.60;99.90
21176;DHT22;10746;50.178;8.186;2023-01-30T08:39:16;1.60;99.90
21176;DHT22;10746;50.178;8.186;2023-01-30T08:41:43;1.60;99.90
21176;DHT22;10746;50.178;8.186;2023-01-30T08:44:10;1.60;99.90
21176;DHT22;10746;50.178;8.186;2023-01-30T08:46:38;1.70;99.90
21176;DHT22;10746;50.178;8.186;2023-01-30T08:49:05;1.60;99.90
21176;DHT22;10746;50.178;8.186;2023-01-30T08:51:32;1.60;99.90
21176;DHT22;10746;50.178;8.186;2023-01-30T08:53:59;1.60;99.90
21176;DHT22;10746;50.178;8.186;2023-01-30T08:56:26;1.60;99.90
21176;DHT22;10746;50.178;8.186;2023-01-30T08:58:52;1.60;99.90
21176;DHT22;10746;50.178;8.186;2023-01-30T09:01:19;1.60;99.90
21176;DHT22;10746;50.178;8.186;2023-01-30T09:03:47;1.60;99.90
21176;DHT22;10746;50.178;8.186;2023-01-30T09:06:14;1.60;99.90
21176;DHT22;10746;50.178;8.186;2023-01-30T09:08:41;1.60;99.90
21176;DHT22;10746;50.178;8.186;2023-01-30T09:11:10;1.60;99.90
21176;DHT22;10746;50.178;8.186;2023-01-30T09:13:37;1.60;99.90
21176;DHT22;10746;50.178;8.186;2023-01-30T09:16:07;1.70;99.90
21176;DHT22;10746;50.178;8.186;2023-01-30T09:18:37;1.70;99.90
21176;DHT22;10746;50.178;8.186;2023-01-30T09:21:05;1.70;99.90
21176;DHT22;10746;50.178;8.186;2023-01-30T09:23:32;1.70;99.90
21176;DHT22;10746;50.178;8.186;2023-01-30T09:25:59;1.80;99.90
21176;DHT22;10746;50.178;8.186;2023-01-30T09:28:26;1.80;99.90
21176;DHT22;10746;50.178;8.186;2023-01-30T09:30:55;1.80;99.90
21176;DHT22;10746;50.178;8.186;2023-01-30T09:33:22;1.80;99.90
21176;DHT22;10746;50.178;8.186;2023-01-30T09:35:49;1.70;99.90
21176;DHT22;10746;50.178;8.186;2023-01-30T09:38:18;1.80;99.90
21176;DHT22;10746;50.178;8.186;2023-01-30T09:40:59;1.90;99.90
21176;DHT22;10746;50.178;8.186;2023-01-30T09:43:42;1.90;99.90
21176;DHT22;10746;50.178;8.186;2023-01-30T09:46:20;2.00;99.90
21176;DHT22;10746;50.178;8.186;2023-01-30T09:48:54;2.20;99.90
21176;DHT22;10746;50.178;8.186;2023-01-30T09:51:44;2.20;99.90
21176;DHT22;10746;50.178;8.186;2023-01-30T09:54:18;2.20;99.90
21176;DHT22;10746;50.178;8.186;2023-01-30T09:57:09;2.30;99.90
21176;DHT22;10746;50.178;8.186;2023-01-30T09:59:44;2.40;99.90
21176;DHT22;10746;50.178;8.186;2023-01-30T10:02:24;2.40;99.90
21176;DHT22;10746;50.178;8.186;2023-01-30T10:04:52;2.40;99.90
21176;DHT22;10746;50.178;8.186;2023-01-30T10:07:27;2.40;99.90
21176;DHT22;10746;50.178;8.186;2023-01-30T10:10:04;2.40;99.90
21176;DHT22;10746;50.178;8.186;2023-01-30T10:12:41;2.40;99.90
21176;DHT22;10746;50.178;8.186;2023-01-30T10:15:18;2.40;99.90
21176;DHT22;10746;50.178;8.186;2023-01-30T10:17:56;2.50;99.90
21176;DHT22;10746;50.178;8.186;2023-01-30T10:20:37;2.70;99.90
21176;DHT22;10746;50.178;8.186;2023-01-30T10:23:25;3.00;99.90
21176;DHT22;10746;50.178;8.186;2023-01-30T10:26:03;3.60;99.90
21176;DHT22;10746;50.178;8.186;2023-01-30T10:28:34;3.90;99.90
21176;DHT22;10746;50.178;8.186;2023-01-30T10:31:07;3.70;99.90
21176;DHT22;10746;50.178;8.186;2023-01-30T10:33:38;3.50;99.90
21176;DHT22;10746;50.178;8.186;2023-01-30T10:36:12;3.40;99.90
21176;DHT22;10746;50.178;8.186;2023-01-30T10:38:43;3.30;99.90
21176;DHT22;10746;50.178;8.186;2023-01-30T10:41:19;3.20;99.90
21176;DHT22;10746;50.178;8.186;2023-01-30T10:43:55;3.10;99.90
21176;DHT22;10746;50.178;8.186;2023-01-30T10:46:45;3.10;99.90
21176;DHT22;10746;50.178;8.186;2023-01-30T10:49:17;3.10;99.90
21176;DHT22;10746;50.178;8.186;2023-01-30T10:51:52;3.10;99.90
21176;DHT22;10746;50.178;8.186;2023-01-30T10:54:24;3.10;99.90
21176;DHT22;10746;50.178;8.186;2023-01-30T10:56:59;3.20;99.90
21176;DHT22;10746;50.178;8.186;2023-01-30T10:59:36;3.20;99.90
21176;DHT22;10746;50.178;8.186;2023-01-30T11:02:15;3.70;99.90
21176;DHT22;10746;50.178;8.186;2023-01-30T11:04:49;3.90;99.90
21176;DHT22;10746;50.178;8.186;2023-01-30T11:07:18;3.80;99.90
21176;DHT22;10746;50.178;8.186;2023-01-30T11:09:46;3.60;99.90
21176;DHT22;10746;50.178;8.186;2023-01-30T11:12:14;3.40;99.90
21176;DHT22;10746;50.178;8.186;2023-01-30T11:14:56;3.40;99.90
21176;DHT22;10746;50.178;8.186;2023-01-30T11:17:33;3.50;99.90
21176;DHT22;10746;50.178;8.186;2023-01-30T11:20:11;3.60;99.90
21176;DHT22;10746;50.178;8.186;2023-01-30T11:22:45;3.50;99.90
21176;DHT22;10746;50.178;8.186;2023-01-30T11:25:14;3.50;99.90
21176;DHT22;10746;50.178;8.186;2023-01-30T11:27:43;3.40;99.90
21176;DHT22;10746;50.178;8.186;2023-01-30T11:30:18;3.40;99.90
21176;DHT22;10746;50.178;8.186;2023-01-30T11:32:47;3.60;99.90
21176;DHT22;10746;50.178;8.186;2023-01-30T11:35:22;3.70;99.90
21176;DHT22;10746;50.178;8.186;2023-01-30T11:37:50;3.60;99.90
21176;DHT22;10746;50.178;8.186;2023-01-30T11:40:23;3.60;99.90
21176;DHT22;10746;50.178;8.186;2023-01-30T11:42:58;3.50;99.90
21176;DHT22;10746;50.178;8.186;2023-01-30T11:45:27;3.60;99.90
21176;DHT22;10746;50.178;8.186;2023-01-30T11:47:56;3.60;99.90
21176;DHT22;10746;50.178;8.186;2023-01-30T11:50:28;3.90;99.90
21176;DHT22;10746;50.178;8.186;2023-01-30T11:53:00;4.00;99.90
21176;DHT22;10746;50.178;8.186;2023-01-30T11:55:30;4.00;99.90
21176;DHT22;10746;50.178;8.186;2023-01-30T11:58:01;3.90;99.90
21176;DHT22;10746;50.178;8.186;2023-01-30T12:00:38;3.80;99.90
21176;DHT22;10746;50.178;8.186;2023-01-30T12:03:10;3.70;99.90
21176;DHT22;10746;50.178;8.186;2023-01-30T12:05:38;3.60;99.90
21176;DHT22;10746;50.178;8.186;2023-01-30T12:08:22;3.50;99.90
21176;DHT22;10746;50.178;8.186;2023-01-30T12:10:51;3.50;99.90
21176;DHT22;10746;50.178;8.186;2023-01-30T12:13:26;3.40;99.90
21176;DHT22;10746;50.178;8.186;2023-01-30T12:16:04;3.40;99.90
21176;DHT22;10746;50.178;8.186;2023-01-30T12:18:37;3.60;99.90
21176;DHT22;10746;50.178;8.186;2023-01-30T12:21:09;3.60;99.90
21176;DHT22;10746;50.178;8.186;2023-01-30T12:23:41;3.50;99.90
21176;DHT22;10746;50.178;8.186;2023-01-30T12:26:12;3.50;99.90
21176;DHT22;10746;50.178;8.186;2023-01-30T12:28:47;3.50;99.90
21176;DHT22;10746;50.178;8.186;2023-01-30T12:31:19;3.40;99.90
21176;DHT22;10746;50.178;8.186;2023-01-30T12:33:47;3.50;99.90
21176;DHT22;10746;50.178;8.186;2023-01-30T12:36:24;4.20;99.90
21176;DHT22;10746;50.178;8.186;2023-01-30T12:38:56;4.80;99.90
21176;DHT22;10746;50.178;8.186;2023-01-30T12:41:40;4.60;99.90
21176;DHT22;10746;50.178;8.186;2023-01-30T12:44:36;4.30;99.90
21176;DHT22;10746;50.178;8.186;2023-01-30T12:47:23;4.10;99.90
21176;DHT22;10746;50.178;8.186;2023-01-30T12:50:19;3.90;99.90
21176;DHT22;10746;50.178;8.186;2023-01-30T12:53:13;3.80;99.90
21176;DHT22;10746;50.178;8.186;2023-01-30T12:55:49;3.70;99.90
21176;DHT22;10746;50.178;8.186;2023-01-30T12:58:22;3.50;99.90
21176;DHT22;10746;50.178;8.186;2023-01-30T13:01:04;3.50;99.90
21176;DHT22;10746;50.178;8.186;2023-01-30T13:03:37;3.60;99.90
21176;DHT22;10746;50.178;8.186;2023-01-30T13:09:10;3.70;99.90
21176;DHT22;10746;50.178;8.186;2023-01-30T13:11:44;3.90;99.90
21176;DHT22;10746;50.178;8.186;2023-01-30T13:14:21;4.10;99.90
21176;DHT22;10746;50.178;8.186;2023-01-30T13:19:48;4.30;99.90
21176;DHT22;10746;50.178;8.186;2023-01-30T13:22:22;4.20;99.90
21176;DHT22;10746;50.178;8.186;2023-01-30T13:24:59;4.10;99.90
21176;DHT22;10746;50.178;8.186;2023-01-30T13:27:34;4.00;99.90
21176;DHT22;10746;50.178;8.186;2023-01-30T13:30:04;4.00;99.90
21176;DHT22;10746;50.178;8.186;2023-01-30T13:32:38;4.00;99.90
21176;DHT22;10746;50.178;8.186;2023-01-30T13:35:14;4.00;99.90
21176;DHT22;10746;50.178;8.186;2023-01-30T13:37:45;4.00;99.90
21176;DHT22;10746;50.178;8.186;2023-01-30T13:40:15;4.00;99.90
21176;DHT22;10746;50.178;8.186;2023-01-30T13:42:47;3.90;99.90
21176;DHT22;10746;50.178;8.186;2023-01-30T13:45:19;3.90;99.90
21176;DHT22;10746;50.178;8.186;2023-01-30T13:47:55;3.90;99.90
21176;DHT22;10746;50.178;8.186;2023-01-30T13:53:20;3.80;99.90
21176;DHT22;10746;50.178;8.186;2023-01-30T13:55:54;3.80;99.90
21176;DHT22;10746;50.178;8.186;2023-01-30T13:58:34;3.80;99.90
21176;DHT22;10746;50.178;8.186;2023-01-30T14:01:08;3.80;99.90
21176;DHT22;10746;50.178;8.186;2023-01-30T14:03:37;3.80;99.90
21176;DHT22;10746;50.178;8.186;2023-01-30T14:06:35;3.70;99.90
21176;DHT22;10746;50.178;8.186;2023-01-30T14:09:18;3.70;99.90
21176;DHT22;10746;50.178;8.186;2023-01-30T14:11:56;3.80;99.90
21176;DHT22;10746;50.178;8.186;2023-01-30T14:14:28;3.90;99.90
21176;DHT22;10746;50.178;8.186;2023-01-30T14:17:09;4.00;99.90
21176;DHT22;10746;50.178;8.186;2023-01-30T14:19:43;4.00;99.90
21176;DHT22;10746;50.178;8.186;2023-01-30T14:22:23;3.90;99.90
21176;DHT22;10746;50.178;8.186;2023-01-30T14:31:50;4.00;99.90
21176;DHT22;10746;50.178;8.186;2023-01-30T14:35:01;4.10;99.90
21176;DHT22;10746;50.178;8.186;2023-01-30T14:38:12;4.00;99.90
21176;DHT22;10746;50.178;8.186;2023-01-30T14:43:37;4.00;99.90
21176;DHT22;10746;50.178;8.186;2023-01-30T14:46:06;3.90;99.90
21176;DHT22;10746;50.178;8.186;2023-01-30T14:48:40;3.80;99.90
21176;DHT22;10746;50.178;8.186;2023-01-30T14:51:18;3.70;99.90
21176;DHT22;10746;50.178;8.186;2023-01-30T14:53:51;3.60;99.90
21176;DHT22;10746;50.178;8.186;2023-01-30T14:56:35;3.50;99.90
21176;DHT22;10746;50.178;8.186;2023-01-30T14:59:07;3.50;99.90
21176;DHT22;10746;50.178;8.186;2023-01-30T15:01:59;3.40;99.90
21176;DHT22;10746;50.178;8.186;2023-01-30T15:04:30;3.40;99.90
21176;DHT22;10746;50.178;8.186;2023-01-30T15:07:03;3.40;99.90
21176;DHT22;10746;50.178;8.186;2023-01-30T15:09:32;3.40;99.90
21176;DHT22;10746;50.178;8.186;2023-01-30T15:12:18;3.40;99.90
21176;DHT22;10746;50.178;8.186;2023-01-30T15:14:58;3.40;99.90
21176;DHT22;10746;50.178;8.186;2023-01-30T15:17:34;3.40;99.90
21176;DHT22;10746;50.178;8.186;2023-01-30T15:20:15;3.30;99.90
21176;DHT22;10746;50.178;8.186;2023-01-30T15:22:58;3.30;99.90
21176;DHT22;10746;50.178;8.186;2023-01-30T15:25:42;3.20;99.90
21176;DHT22;10746;50.178;8.186;2023-01-30T15:28:24;3.30;99.90
21176;DHT22;10746;50.178;8.186;2023-01-30T15:31:02;3.30;99.90
21176;DHT22;10746;50.178;8.186;2023-01-30T15:33:30;3.40;99.90
21176;DHT22;10746;50.178;8.186;2023-01-30T15:35:57;3.30;99.90
21176;DHT22;10746;50.178;8.186;2023-01-30T15:38:29;3.30;99.90
21176;DHT22;10746;50.178;8.186;2023-01-30T15:40:58;3.30;99.90
21176;DHT22;10746;50.178;8.186;2023-01-30T15:44:03;3.20;99.90
21176;DHT22;10746;50.178;8.186;2023-01-30T15:46:40;3.20;99.90
21176;DHT22;10746;50.178;8.186;2023-01-30T15:49:21;3.30;99.90
21176;DHT22;10746;50.178;8.186;2023-01-30T15:51:51;3.20;99.90
21176;DHT22;10746;50.178;8.186;2023-01-30T15:54:22;3.20;99.90
21176;DHT22;10746;50.178;8.186;2023-01-30T15:56:49;3.10;99.90
21176;DHT22;10746;50.178;8.186;2023-01-30T15:59:27;3.00;99.90
21176;DHT22;10746;50.178;8.186;2023-01-30T16:02:02;3.00;99.90
21176;DHT22;10746;50.178;8.186;2023-01-30T16:04:29;3.00;99.90
21176;DHT22;10746;50.178;8.186;2023-01-30T16:06:57;2.90;99.90
21176;DHT22;10746;50.178;8.186;2023-01-30T16:09:25;2.80;99.90
21176;DHT22;10746;50.178;8.186;2023-01-30T16:11:52;2.80;99.90
21176;DHT22;10746;50.178;8.186;2023-01-30T16:14:20;2.80;99.90
21176;DHT22;10746;50.178;8.186;2023-01-30T16:16:50;2.80;99.90
21176;DHT22;10746;50.178;8.186;2023-01-30T16:19:22;2.80;99.90
21176;DHT22;10746;50.178;8.186;2023-01-30T16:21:51;2.80;99.90
21176;DHT22;10746;50.178;8.186;2023-01-30T16:24:20;2.80;99.90
21176;DHT22;10746;50.178;8.186;2023-01-30T16:26:52;2.90;99.90
21176;DHT22;10746;50.178;8.186;2023-01-30T16:29:21;2.90;99.90
21176;DHT22;10746;50.178;8.186;2023-01-30T16:31:50;2.90;99.90
21176;DHT22;10746;50.178;8.186;2023-01-30T16:34:26;2.90;99.90
21176;DHT22;10746;50.178;8.186;2023-01-30T16:36:54;2.90;99.90